sensor_id;sensor_type;location;lat;lon;timestamp;pressure;altitude;pressure_sealevel;temperature;humidity
57990;BME280;58373;51.824;5.564;2024-02-28T00:00:56;101958.28;;;1.25;100.00
57990;BME280;58373;51.824;5.564;2024-02-28T00:03:22;101956.63;;;1.24;100.00
57990;BME280;58373;51.824;5.564;2024-02-28T00:05:48;101956.63;;;1.24;100.00
57990;BME280;58373;51.824;5.564;2024-02-28T00:08:14;101956.63;;;1.24;100.00
57990;BME280;58373;51.824;5.564;2024-02-28T00:10:39;101958.28;;;1.25;100.00
57990;BME280;58373;51.824;5.564;2024-02-28T00:13:04;101950.72;;;1.20;100.00
57990;BME280;58373;51.824;5.564;2024-02-28T00:15:29;101962.81;;;1.15;100.00
57990;BME280;58373;51.824;5.564;2024-02-28T00:17:54;101956.91;;;1.12;100.00
57990;BME280;58373;51.824;5.564;2024-02-28T00:20:20;101956.91;;;1.12;100.00
57990;BME280;58373;51.824;5.564;2024-02-28T00:22:45;101956.03;;;1.13;100.00
57990;BME280;58373;51.824;5.564;2024-02-28T00:25:10;101960.25;;;1.14;100.00
57990;BME280;58373;51.824;5.564;2024-02-28T00:27:36;101953.41;;;1.16;100.00
57990;BME280;58373;51.824;5.564;2024-02-28T00:30:02;101945.78;;;1.14;100.00
57990;BME280;58373;51.824;5.564;2024-02-28T00:32:31;101953.41;;;1.16;100.00
57990;BME280;58373;51.824;5.564;2024-02-28T00:34:56;101956.03;;;1.13;100.00
57990;BME280;58373;51.824;5.564;2024-02-28T00:37:21;101955.38;;;1.04;100.00
57990;BME280;58373;51.824;5.564;2024-02-28T00:39:46;101947.06;;;0.96;100.00
57990;BME280;58373;51.824;5.564;2024-02-28T00:42:12;101942.03;;;0.93;100.00
57990;BME280;58373;51.824;5.564;2024-02-28T00:44:37;101948.84;;;0.93;100.00
57990;BME280;58373;51.824;5.564;2024-02-28T00:47:02;101947.13;;;0.93;100.00
57990;BME280;58373;51.824;5.564;2024-02-28T00:49:27;101955.69;;;0.92;100.00
57990;BME280;58373;51.824;5.564;2024-02-28T00:51:52;101956.53;;;0.93;100.00
57990;BME280;58373;51.824;5.564;2024-02-28T00:54:17;101955.69;;;0.92;100.00
57990;BME280;58373;51.824;5.564;2024-02-28T00:56:43;101962.47;;;0.93;100.00
57990;BME280;58373;51.824;5.564;2024-02-28T00:59:08;101961.72;;;0.88;100.00
57990;BME280;58373;51.824;5.564;2024-02-28T01:01:36;101958.44;;;0.83;100.00
57990;BME280;58373;51.824;5.564;2024-02-28T01:04:01;101954.34;;;0.76;100.00
57990;BME280;58373;51.824;5.564;2024-02-28T01:06:26;101945.94;;;0.71;100.00
57990;BME280;58373;51.824;5.564;2024-02-28T01:08:51;101944.28;;;0.68;100.00
57990;BME280;58373;51.824;5.564;2024-02-28T01:11:16;101941.03;;;0.62;100.00
57990;BME280;58373;51.824;5.564;2024-02-28T01:13:41;101938.63;;;0.56;100.00
57990;BME280;58373;51.824;5.564;2024-02-28T01:16:07;101943.91;;;0.48;100.00
57990;BME280;58373;51.824;5.564;2024-02-28T01:18:32;101943.13;;;0.44;100.00
57990;BME280;58373;51.824;5.564;2024-02-28T01:20:58;101946.63;;;0.40;100.00
57990;BME280;58373;51.824;5.564;2024-02-28T01:23:23;101945.78;;;0.40;100.00
57990;BME280;58373;51.824;5.564;2024-02-28T01:25:48;101933.00;;;0.41;100.00
57990;BME280;58373;51.824;5.564;2024-02-28T01:28:13;101944.78;;;0.45;100.00
57990;BME280;58373;51.824;5.564;2024-02-28T01:30:38;101941.31;;;0.49;100.00
57990;BME280;58373;51.824;5.564;2024-02-28T01:33:04;101942.09;;;0.53;100.00
57990;BME280;58373;51.824;5.564;2024-02-28T01:35:29;101956.44;;;0.59;100.00
57990;BME280;58373;51.824;5.564;2024-02-28T01:37:54;101948.84;;;0.56;100.00
57990;BME280;58373;51.824;5.564;2024-02-28T01:40:20;101942.84;;;0.57;100.00
57990;BME280;58373;51.824;5.564;2024-02-28T01:42:45;101956.44;;;0.59;100.00
57990;BME280;58373;51.824;5.564;2024-02-28T01:45:13;101961.53;;;0.59;100.00
57990;BME280;58373;51.824;5.564;2024-02-28T01:47:38;101962.34;;;0.61;100.00
57990;BME280;58373;51.824;5.564;2024-02-28T01:50:04;101960.72;;;0.58;100.00
57990;BME280;58373;51.824;5.564;2024-02-28T01:52:29;101950.56;;;0.55;100.00
57990;BME280;58373;51.824;5.564;2024-02-28T01:54:55;101944.59;;;0.55;100.00
57990;BME280;58373;51.824;5.564;2024-02-28T01:57:20;101941.25;;;0.52;100.00
57990;BME280;58373;51.824;5.564;2024-02-28T01:59:45;101946.38;;;0.52;100.00
57990;BME280;58373;51.824;5.564;2024-02-28T02:02:11;101946.38;;;0.52;100.00
57990;BME280;58373;51.824;5.564;2024-02-28T02:04:36;101948.03;;;0.53;100.00
57990;BME280;58373;51.824;5.564;2024-02-28T02:07:02;101946.28;;;0.56;100.00
57990;BME280;58373;51.824;5.564;2024-02-28T02:09:27;101942.84;;;0.57;100.00
57990;BME280;58373;51.824;5.564;2024-02-28T02:11:52;101946.25;;;0.57;100.00
57990;BME280;58373;51.824;5.564;2024-02-28T02:14:18;101936.03;;;0.59;100.00
57990;BME280;58373;51.824;5.564;2024-02-28T02:16:43;101935.94;;;0.62;100.00
57990;BME280;58373;51.824;5.564;2024-02-28T02:19:08;101938.47;;;0.63;100.00
57990;BME280;58373;51.824;5.564;2024-02-28T02:21:34;101942.66;;;0.66;100.00
57990;BME280;58373;51.824;5.564;2024-02-28T02:23:59;101934.91;;;0.70;100.00
57990;BME280;58373;51.824;5.564;2024-02-28T02:26:25;101939.09;;;0.73;100.00
57990;BME280;58373;51.824;5.564;2024-02-28T02:28:50;101945.81;;;0.77;100.00
57990;BME280;58373;51.824;5.564;2024-02-28T02:31:15;101943.22;;;0.78;100.00
57990;BME280;58373;51.824;5.564;2024-02-28T02:33:40;101952.53;;;0.81;100.00
57990;BME280;58373;51.824;5.564;2024-02-28T02:36:05;101955.88;;;0.83;100.00
57990;BME280;58373;51.824;5.564;2024-02-28T02:38:31;101952.44;;;0.84;100.00
57990;BME280;58373;51.824;5.564;2024-02-28T02:40:56;101952.44;;;0.84;100.00
57990;BME280;58373;51.824;5.564;2024-02-28T02:43:22;101950.72;;;0.86;100.00
57990;BME280;58373;51.824;5.564;2024-02-28T02:45:47;101946.44;;;0.87;100.00
57990;BME280;58373;51.824;5.564;2024-02-28T02:48:12;101955.81;;;0.86;100.00
57990;BME280;58373;51.824;5.564;2024-02-28T02:50:37;101954.22;;;0.82;100.00
57990;BME280;58373;51.824;5.564;2024-02-28T02:53:03;101947.50;;;0.78;100.00
57990;BME280;58373;51.824;5.564;2024-02-28T02:55:28;101949.38;;;0.70;100.00
57990;BME280;58373;51.824;5.564;2024-02-28T02:57:53;101941.00;;;0.65;100.00
57990;BME280;58373;51.824;5.564;2024-02-28T03:00:19;101947.91;;;0.60;100.00
57990;BME280;58373;51.824;5.564;2024-02-28T03:02:44;101953.97;;;0.54;100.00
57990;BME280;58373;51.824;5.564;2024-02-28T03:05:09;101958.31;;;0.50;100.00
57990;BME280;58373;51.824;5.564;2024-02-28T03:07:35;101948.19;;;0.47;100.00
57990;BME280;58373;51.824;5.564;2024-02-28T03:10:00;101934.53;;;0.48;100.00
57990;BME280;58373;51.824;5.564;2024-02-28T03:12:25;101939.50;;;0.55;100.00
57990;BME280;58373;51.824;5.564;2024-02-28T03:14:51;101939.38;;;0.61;100.00
57990;BME280;58373;51.824;5.564;2024-02-28T03:17:16;101934.22;;;0.64;100.00
57990;BME280;58373;51.824;5.564;2024-02-28T03:19:41;101934.13;;;0.67;100.00
57990;BME280;58373;51.824;5.564;2024-02-28T03:22:06;101936.63;;;0.68;100.00
57990;BME280;58373;51.824;5.564;2024-02-28T03:24:32;101950.19;;;0.72;100.00
57990;BME280;58373;51.824;5.564;2024-02-28T03:26:59;101947.63;;;0.72;100.00
57990;BME280;58373;51.824;5.564;2024-02-28T03:29:25;101954.50;;;0.68;100.00
57990;BME280;58373;51.824;5.564;2024-02-28T03:31:50;101954.63;;;0.64;100.00
57990;BME280;58373;51.824;5.564;2024-02-28T03:34:15;101953.00;;;0.60;100.00
57990;BME280;58373;51.824;5.564;2024-02-28T03:36:40;101945.53;;;0.52;100.00
57990;BME280;58373;51.824;5.564;2024-02-28T03:39:05;101943.06;;;0.47;100.00
57990;BME280;58373;51.824;5.564;2024-02-28T03:41:31;101954.25;;;0.42;100.00
57990;BME280;58373;51.824;5.564;2024-02-28T03:43:56;101946.69;;;0.37;100.00
57990;BME280;58373;51.824;5.564;2024-02-28T03:46:21;101944.25;;;0.31;100.00
57990;BME280;58373;51.824;5.564;2024-02-28T03:48:46;101943.53;;;0.26;100.00
57990;BME280;58373;51.824;5.564;2024-02-28T03:51:12;101941.97;;;0.19;100.00
57990;BME280;58373;51.824;5.564;2024-02-28T03:53:37;101940.34;;;0.15;100.00
57990;BME280;58373;51.824;5.564;2024-02-28T03:56:02;101945.53;;;0.12;100.00
57990;BME280;58373;51.824;5.564;2024-02-28T03:58:28;101947.25;;;0.10;100.00
57990;BME280;58373;51.824;5.564;2024-02-28T04:00:53;101955.78;;;0.09;100.00
57990;BME280;58373;51.824;5.564;2024-02-28T04:03:18;101944.75;;;0.08;100.00
57990;BME280;58373;51.824;5.564;2024-02-28T04:05:43;101943.91;;;0.08;100.00
57990;BME280;58373;51.824;5.564;2024-02-28T04:08:09;101949.84;;;0.08;100.00
57990;BME280;58373;51.824;5.564;2024-02-28T04:10:34;101937.94;;;0.09;100.00
57990;BME280;58373;51.824;5.564;2024-02-28T04:12:59;101945.53;;;0.12;100.00
57990;BME280;58373;51.824;5.564;2024-02-28T04:15:24;101939.53;;;0.13;100.00
57990;BME280;58373;51.824;5.564;2024-02-28T04:17:51;101947.19;;;0.13;100.00
57990;BME280;58373;51.824;5.564;2024-02-28T04:20:16;101949.75;;;0.13;100.00
57990;BME280;58373;51.824;5.564;2024-02-28T04:22:41;101953.97;;;0.14;100.00
57990;BME280;58373;51.824;5.564;2024-02-28T04:25:07;101959.91;;;0.14;100.00
57990;BME280;58373;51.824;5.564;2024-02-28T04:27:33;101957.31;;;0.16;100.00
57990;BME280;58373;51.824;5.564;2024-02-28T04:29:58;101946.25;;;0.17;100.00
57990;BME280;58373;51.824;5.564;2024-02-28T04:32:24;101962.38;;;0.19;100.00
57990;BME280;58373;51.824;5.564;2024-02-28T04:34:49;101956.41;;;0.20;100.00
57990;BME280;58373;51.824;5.564;2024-02-28T04:37:14;101953.84;;;0.20;100.00
57990;BME280;58373;51.824;5.564;2024-02-28T04:39:39;101952.09;;;0.22;100.00
57990;BME280;58373;51.824;5.564;2024-02-28T04:42:05;101962.34;;;0.20;100.00
57990;BME280;58373;51.824;5.564;2024-02-28T04:44:30;101968.28;;;0.21;100.00
57990;BME280;58373;51.824;5.564;2024-02-28T04:46:55;101965.72;;;0.21;100.00
57990;BME280;58373;51.824;5.564;2024-02-28T04:49:21;101962.31;;;0.22;100.00
57990;BME280;58373;51.824;5.564;2024-02-28T04:51:46;101974.19;;;0.23;100.00
57990;BME280;58373;51.824;5.564;2024-02-28T04:54:12;101961.44;;;0.23;100.00
57990;BME280;58373;51.824;5.564;2024-02-28T04:56:40;101960.59;;;0.24;100.00
57990;BME280;58373;51.824;5.564;2024-02-28T04:59:06;101970.72;;;0.27;100.00
57990;BME280;58373;51.824;5.564;2024-02-28T05:01:31;101980.91;;;0.27;100.00
57990;BME280;58373;51.824;5.564;2024-02-28T05:03:56;101979.19;;;0.29;100.00
57990;BME280;58373;51.824;5.564;2024-02-28T05:06:21;101980.88;;;0.30;100.00
57990;BME280;58373;51.824;5.564;2024-02-28T05:08:47;101980.88;;;0.30;100.00
57990;BME280;58373;51.824;5.564;2024-02-28T05:11:12;101987.66;;;0.31;100.00
57990;BME280;58373;51.824;5.564;2024-02-28T05:13:37;101985.97;;;0.30;100.00
57990;BME280;58373;51.824;5.564;2024-02-28T05:16:02;101987.66;;;0.31;100.00
57990;BME280;58373;51.824;5.564;2024-02-28T05:18:27;101997.84;;;0.31;100.00
57990;BME280;58373;51.824;5.564;2024-02-28T05:20:56;101995.31;;;0.31;100.00
57990;BME280;58373;51.824;5.564;2024-02-28T05:23:21;101997.84;;;0.31;100.00
57990;BME280;58373;51.824;5.564;2024-02-28T05:25:46;101998.69;;;0.32;100.00
57990;BME280;58373;51.824;5.564;2024-02-28T05:28:11;101991.00;;;0.33;100.00
57990;BME280;58373;51.824;5.564;2024-02-28T05:30:37;101990.13;;;0.34;100.00
57990;BME280;58373;51.824;5.564;2024-02-28T05:33:02;101992.66;;;0.34;100.00
57990;BME280;58373;51.824;5.564;2024-02-28T05:35:27;101984.16;;;0.35;100.00
57990;BME280;58373;51.824;5.564;2024-02-28T05:37:53;101986.72;;;0.34;100.00
57990;BME280;58373;51.824;5.564;2024-02-28T05:40:19;101993.53;;;0.33;100.00
57990;BME280;58373;51.824;5.564;2024-02-28T05:42:45;102002.06;;;0.32;100.00
57990;BME280;58373;51.824;5.564;2024-02-28T05:45:10;101990.16;;;0.33;100.00
57990;BME280;58373;51.824;5.564;2024-02-28T05:47:35;101995.31;;;0.31;100.00
57990;BME280;58373;51.824;5.564;2024-02-28T05:50:00;101997.00;;;0.31;100.00
57990;BME280;58373;51.824;5.564;2024-02-28T05:52:26;102006.38;;;0.30;100.00
57990;BME280;58373;51.824;5.564;2024-02-28T05:54:52;102003.00;;;0.28;100.00
57990;BME280;58373;51.824;5.564;2024-02-28T05:57:17;102004.72;;;0.29;100.00
57990;BME280;58373;51.824;5.564;2024-02-28T05:59:42;101991.13;;;0.27;100.00
57990;BME280;58373;51.824;5.564;2024-02-28T06:02:07;101990.25;;;0.28;100.00
57990;BME280;58373;51.824;5.564;2024-02-28T06:04:33;101991.13;;;0.27;100.00
57990;BME280;58373;51.824;5.564;2024-02-28T06:06:58;101989.44;;;0.26;100.00
57990;BME280;58373;51.824;5.564;2024-02-28T06:09:23;101986.09;;;0.24;100.00
57990;BME280;58373;51.824;5.564;2024-02-28T06:11:49;101995.47;;;0.23;100.00
57990;BME280;58373;51.824;5.564;2024-02-28T06:14:14;101999.69;;;0.23;100.00
57990;BME280;58373;51.824;5.564;2024-02-28T06:16:39;102001.44;;;0.21;100.00
57990;BME280;58373;51.824;5.564;2024-02-28T06:19:04;101995.53;;;0.19;100.00
57990;BME280;58373;51.824;5.564;2024-02-28T06:21:29;102000.69;;;0.17;100.00
57990;BME280;58373;51.824;5.564;2024-02-28T06:23:55;101996.44;;;0.18;100.00
57990;BME280;58373;51.824;5.564;2024-02-28T06:26:20;102008.31;;;0.19;100.00
57990;BME280;58373;51.824;5.564;2024-02-28T06:28:45;102008.31;;;0.19;100.00
57990;BME280;58373;51.824;5.564;2024-02-28T06:31:17;102006.63;;;0.18;100.00
57990;BME280;58373;51.824;5.564;2024-02-28T06:33:43;102010.03;;;0.17;100.00
57990;BME280;58373;51.824;5.564;2024-02-28T06:36:08;102016.00;;;0.17;100.00
57990;BME280;58373;51.824;5.564;2024-02-28T06:38:33;102028.72;;;0.19;100.00
57990;BME280;58373;51.824;5.564;2024-02-28T06:41:00;102023.59;;;0.19;100.00
57990;BME280;58373;51.824;5.564;2024-02-28T06:43:25;102021.91;;;0.19;100.00
57990;BME280;58373;51.824;5.564;2024-02-28T06:45:50;102028.72;;;0.19;100.00
57990;BME280;58373;51.824;5.564;2024-02-28T06:48:15;102033.81;;;0.19;100.00
57990;BME280;58373;51.824;5.564;2024-02-28T06:50:41;102033.81;;;0.19;100.00
57990;BME280;58373;51.824;5.564;2024-02-28T06:53:06;102037.25;;;0.18;100.00
57990;BME280;58373;51.824;5.564;2024-02-28T06:55:31;102039.75;;;0.19;100.00
57990;BME280;58373;51.824;5.564;2024-02-28T06:57:56;102038.00;;;0.21;100.00
57990;BME280;58373;51.824;5.564;2024-02-28T07:00:22;102034.56;;;0.22;100.00
57990;BME280;58373;51.824;5.564;2024-02-28T07:02:47;102037.13;;;0.24;100.00
57990;BME280;58373;51.824;5.564;2024-02-28T07:05:12;102042.16;;;0.27;100.00
57990;BME280;58373;51.824;5.564;2024-02-28T07:07:37;102047.22;;;0.30;100.00
57990;BME280;58373;51.824;5.564;2024-02-28T07:10:03;102057.34;;;0.33;100.00
57990;BME280;58373;51.824;5.564;2024-02-28T07:12:29;102064.13;;;0.34;100.00
57990;BME280;58373;51.824;5.564;2024-02-28T07:14:54;102069.19;;;0.37;100.00
57990;BME280;58373;51.824;5.564;2024-02-28T07:17:20;102068.25;;;0.40;100.00
57990;BME280;58373;51.824;5.564;2024-02-28T07:19:45;102074.16;;;0.43;100.00
57990;BME280;58373;51.824;5.564;2024-02-28T07:22:10;102063.91;;;0.46;100.00
57990;BME280;58373;51.824;5.564;2024-02-28T07:24:35;102062.16;;;0.48;100.00
57990;BME280;58373;51.824;5.564;2024-02-28T07:27:01;102065.50;;;0.50;100.00
57990;BME280;58373;51.824;5.564;2024-02-28T07:29:27;102068.00;;;0.53;100.00
57990;BME280;58373;51.824;5.564;2024-02-28T07:31:52;102073.91;;;0.56;100.00
57990;BME280;58373;51.824;5.564;2024-02-28T07:34:17;102075.53;;;0.60;100.00
57990;BME280;58373;51.824;5.564;2024-02-28T07:36:42;102074.63;;;0.62;100.00
57990;BME280;58373;51.824;5.564;2024-02-28T07:39:08;102078.00;;;0.64;100.00
57990;BME280;58373;51.824;5.564;2024-02-28T07:41:37;102079.66;;;0.67;100.00
57990;BME280;58373;51.824;5.564;2024-02-28T07:44:03;102083.00;;;0.69;100.00
57990;BME280;58373;51.824;5.564;2024-02-28T07:46:28;102091.41;;;0.74;100.00
57990;BME280;58373;51.824;5.564;2024-02-28T07:48:54;102095.56;;;0.79;100.00
57990;BME280;58373;51.824;5.564;2024-02-28T07:51:19;102097.22;;;0.82;100.00
57990;BME280;58373;51.824;5.564;2024-02-28T07:53:45;102097.09;;;0.88;100.00
57990;BME280;58373;51.824;5.564;2024-02-28T07:56:20;102093.66;;;0.89;100.00
57990;BME280;58373;51.824;5.564;2024-02-28T07:58:46;102096.88;;;0.97;100.00
57990;BME280;58373;51.824;5.564;2024-02-28T08:01:11;102103.63;;;1.01;100.00
57990;BME280;58373;51.824;5.564;2024-02-28T08:03:36;102101.00;;;1.04;100.00
57990;BME280;58373;51.824;5.564;2024-02-28T08:06:02;102107.72;;;1.09;100.00
57990;BME280;58373;51.824;5.564;2024-02-28T08:08:27;102122.13;;;1.13;100.00
57990;BME280;58373;51.824;5.564;2024-02-28T08:10:52;102117.78;;;1.15;100.00
57990;BME280;58373;51.824;5.564;2024-02-28T08:13:18;102116.88;;;1.19;100.00
57990;BME280;58373;51.824;5.564;2024-02-28T08:15:43;102111.72;;;1.22;100.00
57990;BME280;58373;51.824;5.564;2024-02-28T08:18:09;102120.97;;;1.26;100.00
57990;BME280;58373;51.824;5.564;2024-02-28T08:20:36;102116.63;;;1.29;100.00
57990;BME280;58373;51.824;5.564;2024-02-28T08:23:02;102126.81;;;1.31;100.00
57990;BME280;58373;51.824;5.564;2024-02-28T08:25:28;102125.94;;;1.33;100.00
57990;BME280;58373;51.824;5.564;2024-02-28T08:27:53;102135.19;;;1.38;100.00
57990;BME280;58373;51.824;5.564;2024-02-28T08:30:18;102132.56;;;1.41;100.00
57990;BME280;58373;51.824;5.564;2024-02-28T08:32:44;102125.69;;;1.43;100.00
57990;BME280;58373;51.824;5.564;2024-02-28T08:35:09;102136.72;;;1.46;100.00
57990;BME280;58373;51.824;5.564;2024-02-28T08:37:35;102129.84;;;1.48;100.00
57990;BME280;58373;51.824;5.564;2024-02-28T08:40:00;102138.31;;;1.50;100.00
57990;BME280;58373;51.824;5.564;2024-02-28T08:42:26;102137.41;;;1.53;100.00
57990;BME280;58373;51.824;5.564;2024-02-28T08:44:51;102143.34;;;1.53;100.00
57990;BME280;58373;51.824;5.564;2024-02-28T08:47:17;102134.81;;;1.54;100.00
57990;BME280;58373;51.824;5.564;2024-02-28T08:49:43;102139.88;;;1.57;100.00
57990;BME280;58373;51.824;5.564;2024-02-28T08:52:09;102141.47;;;1.62;100.00
57990;BME280;58373;51.824;5.564;2024-02-28T08:54:34;102145.63;;;1.66;100.00
57990;BME280;58373;51.824;5.564;2024-02-28T08:56:59;102145.56;;;1.69;100.00
57990;BME280;58373;51.824;5.564;2024-02-28T08:59:24;102136.06;;;1.74;100.00
57990;BME280;58373;51.824;5.564;2024-02-28T09:01:50;102145.31;;;1.79;100.00
57990;BME280;58373;51.824;5.564;2024-02-28T09:04:15;102144.34;;;1.83;100.00
57990;BME280;58373;51.824;5.564;2024-02-28T09:06:41;102145.91;;;1.89;100.00
57990;BME280;58373;51.824;5.564;2024-02-28T09:09:06;102143.25;;;1.94;100.00
57990;BME280;58373;51.824;5.564;2024-02-28T09:11:31;102138.91;;;1.97;100.00
57990;BME280;58373;51.824;5.564;2024-02-28T09:13:56;102137.97;;;2.01;100.00
57990;BME280;58373;51.824;5.564;2024-02-28T09:16:21;102140.44;;;2.04;100.00
57990;BME280;58373;51.824;5.564;2024-02-28T09:18:47;102129.31;;;2.05;100.00
57990;BME280;58373;51.824;5.564;2024-02-28T09:21:12;102131.81;;;2.08;100.00
57990;BME280;58373;51.824;5.564;2024-02-28T09:23:40;102136.84;;;2.11;100.00
57990;BME280;58373;51.824;5.564;2024-02-28T09:26:05;102128.22;;;2.16;100.00
57990;BME280;58373;51.824;5.564;2024-02-28T09:28:31;102129.81;;;2.20;100.00
57990;BME280;58373;51.824;5.564;2024-02-28T09:30:56;102134.00;;;2.24;100.00
57990;BME280;58373;51.824;5.564;2024-02-28T09:33:22;102129.66;;;2.26;100.00
57990;BME280;58373;51.824;5.564;2024-02-28T09:35:47;102129.56;;;2.29;100.00
57990;BME280;58373;51.824;5.564;2024-02-28T09:38:12;102126.06;;;2.33;100.00
57990;BME280;58373;51.824;5.564;2024-02-28T09:40:38;102136.22;;;2.36;100.00
57990;BME280;58373;51.824;5.564;2024-02-28T09:43:03;102130.16;;;2.38;100.00
57990;BME280;58373;51.824;5.564;2024-02-28T09:45:29;102141.19;;;2.42;100.00
57990;BME280;58373;51.824;5.564;2024-02-28T09:47:56;102132.53;;;2.46;100.00
57990;BME280;58373;51.824;5.564;2024-02-28T09:50:21;102140.09;;;2.51;100.00
57990;BME280;58373;51.824;5.564;2024-02-28T09:52:46;102137.41;;;2.55;100.00
57990;BME280;58373;51.824;5.564;2024-02-28T09:55:12;102139.00;;;2.59;100.00
57990;BME280;58373;51.824;5.564;2024-02-28T09:57:37;102137.25;;;2.61;100.00
57990;BME280;58373;51.824;5.564;2024-02-28T10:00:02;102135.41;;;2.66;100.00
57990;BME280;58373;51.824;5.564;2024-02-28T10:02:28;102137.00;;;2.71;100.00
57990;BME280;58373;51.824;5.564;2024-02-28T10:04:53;102135.16;;;2.76;100.00
57990;BME280;58373;51.824;5.564;2024-02-28T10:07:20;102135.00;;;2.80;100.00
57990;BME280;58373;51.824;5.564;2024-02-28T10:09:46;102134.88;;;2.85;100.00
57990;BME280;58373;51.824;5.564;2024-02-28T10:12:12;102147.56;;;2.89;100.00
57990;BME280;58373;51.824;5.564;2024-02-28T10:14:37;102150.00;;;2.94;100.00
57990;BME280;58373;51.824;5.564;2024-02-28T10:17:03;102146.44;;;2.98;100.00
57990;BME280;58373;51.824;5.564;2024-02-28T10:19:28;102141.25;;;3.01;100.00
57990;BME280;58373;51.824;5.564;2024-02-28T10:21:53;102147.97;;;3.05;100.00
57990;BME280;58373;51.824;5.564;2024-02-28T10:24:18;102152.09;;;3.09;100.00
57990;BME280;58373;51.824;5.564;2024-02-28T10:26:44;102149.47;;;3.12;100.00
57990;BME280;58373;51.824;5.564;2024-02-28T10:29:10;102139.03;;;3.18;100.00
57990;BME280;58373;51.824;5.564;2024-02-28T10:31:35;102149.94;;;3.25;100.00
57990;BME280;58373;51.824;5.564;2024-02-28T10:34:01;102138.66;;;3.31;100.00
57990;BME280;58373;51.824;5.564;2024-02-28T10:36:26;102147.88;;;3.36;100.00
57990;BME280;58373;51.824;5.564;2024-02-28T10:38:55;102140.06;;;3.41;100.00
57990;BME280;58373;51.824;5.564;2024-02-28T10:41:20;102138.19;;;3.46;100.00
57990;BME280;58373;51.824;5.564;2024-02-28T10:43:46;102140.56;;;3.52;100.00
57990;BME280;58373;51.824;5.564;2024-02-28T10:46:13;102133.56;;;3.57;100.00
57990;BME280;58373;51.824;5.564;2024-02-28T10:48:39;102147.09;;;3.62;100.00
57990;BME280;58373;51.824;5.564;2024-02-28T10:51:04;102132.41;;;3.67;100.00
57990;BME280;58373;51.824;5.564;2024-02-28T10:53:32;102135.63;;;3.72;100.00
57990;BME280;58373;51.824;5.564;2024-02-28T10:55:57;102132.09;;;3.77;100.00
57990;BME280;58373;51.824;5.564;2024-02-28T10:58:27;102125.09;;;3.82;100.00
57990;BME280;58373;51.824;5.564;2024-02-28T11:00:55;102132.59;;;3.88;100.00
57990;BME280;58373;51.824;5.564;2024-02-28T11:03:20;102126.34;;;3.95;100.00
57990;BME280;58373;51.824;5.564;2024-02-28T11:05:45;102122.72;;;4.02;100.00
57990;BME280;58373;51.824;5.564;2024-02-28T11:08:12;102120.84;;;4.07;100.00
57990;BME280;58373;51.824;5.564;2024-02-28T11:10:44;102122.38;;;4.11;100.00
57990;BME280;58373;51.824;5.564;2024-02-28T11:13:21;102122.19;;;4.17;100.00
57990;BME280;58373;51.824;5.564;2024-02-28T11:15:46;102119.41;;;4.23;100.00
57990;BME280;58373;51.824;5.564;2024-02-28T11:18:11;102113.19;;;4.31;100.00
57990;BME280;58373;51.824;5.564;2024-02-28T11:20:37;102107.00;;;4.36;100.00
57990;BME280;58373;51.824;5.564;2024-02-28T11:23:03;102112.75;;;4.43;100.00
57990;BME280;58373;51.824;5.564;2024-02-28T11:25:30;102109.06;;;4.50;100.00
57990;BME280;58373;51.824;5.564;2024-02-28T11:27:56;102114.00;;;4.56;100.00
57990;BME280;58373;51.824;5.564;2024-02-28T11:30:21;102106.94;;;4.61;100.00
57990;BME280;58373;51.824;5.564;2024-02-28T11:32:46;102105.06;;;4.66;100.00
57990;BME280;58373;51.824;5.564;2024-02-28T11:35:12;102099.69;;;4.72;100.00
57990;BME280;58373;51.824;5.564;2024-02-28T11:37:38;102094.19;;;4.82;100.00
57990;BME280;58373;51.824;5.564;2024-02-28T11:40:07;102094.53;;;4.96;100.00
57990;BME280;58373;51.824;5.564;2024-02-28T11:42:33;102092.31;;;5.09;100.00
57990;BME280;58373;51.824;5.564;2024-02-28T11:44:59;102091.00;;;5.20;100.00
57990;BME280;58373;51.824;5.564;2024-02-28T11:47:25;102090.66;;;5.29;100.00
57990;BME280;58373;51.824;5.564;2024-02-28T11:49:50;102091.19;;;5.38;100.00
57990;BME280;58373;51.824;5.564;2024-02-28T11:52:15;102084.78;;;5.48;100.00
57990;BME280;58373;51.824;5.564;2024-02-28T11:54:40;102091.34;;;5.55;100.00
57990;BME280;58373;51.824;5.564;2024-02-28T11:57:10;102079.97;;;5.60;100.00
57990;BME280;58373;51.824;5.564;2024-02-28T11:59:38;102077.13;;;5.68;100.00
57990;BME280;58373;51.824;5.564;2024-02-28T12:02:11;102080.31;;;5.73;100.00
57990;BME280;58373;51.824;5.564;2024-02-28T12:04:36;102082.59;;;5.81;100.00
57990;BME280;58373;51.824;5.564;2024-02-28T12:07:01;102077.19;;;5.87;100.00
57990;BME280;58373;51.824;5.564;2024-02-28T12:09:27;102069.31;;;5.92;100.00
57990;BME280;58373;51.824;5.564;2024-02-28T12:11:53;102060.53;;;5.96;100.00
57990;BME280;58373;51.824;5.564;2024-02-28T12:14:18;102080.84;;;6.02;100.00
57990;BME280;58373;51.824;5.564;2024-02-28T12:16:43;102071.19;;;6.07;100.00
57990;BME280;58373;51.824;5.564;2024-02-28T12:19:11;102061.53;;;6.12;100.00
57990;BME280;58373;51.824;5.564;2024-02-28T12:21:40;102069.91;;;6.17;100.00
57990;BME280;58373;51.824;5.564;2024-02-28T12:24:07;102060.31;;;6.21;100.00
57990;BME280;58373;51.824;5.564;2024-02-28T12:26:32;102066.16;;;6.24;100.00
57990;BME280;58373;51.824;5.564;2024-02-28T12:28:57;102057.41;;;6.28;100.00
57990;BME280;58373;51.824;5.564;2024-02-28T12:31:23;102060.63;;;6.33;100.00
57990;BME280;58373;51.824;5.564;2024-02-28T12:33:48;102060.34;;;6.39;100.00
57990;BME280;58373;51.824;5.564;2024-02-28T12:36:13;102066.97;;;6.45;100.00
57990;BME280;58373;51.824;5.564;2024-02-28T12:38:39;102068.44;;;6.51;100.00
57990;BME280;58373;51.824;5.564;2024-02-28T12:41:05;102062.38;;;6.52;100.00